createdAt,value
2023-03-23T00:00:00.192Z,0
2023-03-23T00:05:17.660Z,0
2023-03-23T00:10:35.276Z,0
2023-03-23T00:16:09.708Z,0
2023-03-23T00:21:27.513Z,0
2023-03-23T00:26:47.912Z,0
2023-03-23T00:32:05.565Z,0
2023-03-23T00:37:22.743Z,0
2023-03-23T00:42:40.554Z,0
2023-03-23T00:48:01.242Z,0
2023-03-23T00:53:18.504Z,0
2023-03-23T00:58:37.944Z,0
2023-03-23T01:03:56.039Z,0
2023-03-23T01:09:13.282Z,0
2023-03-23T01:14:36.873Z,0
2023-03-23T01:19:54.522Z,0
2023-03-23T01:25:11.891Z,0
2023-03-23T01:30:29.294Z,0
2023-03-23T01:35:49.824Z,0
2023-03-23T01:41:07.326Z,0
2023-03-23T01:46:24.469Z,0
2023-03-23T01:51:42.274Z,0
2023-03-23T01:56:59.645Z,0
2023-03-23T02:02:17.291Z,0
2023-03-23T02:07:34.795Z,0
2023-03-23T02:12:54.679Z,0
2023-03-23T02:18:13.402Z,0
2023-03-23T02:23:30.702Z,0
2023-03-23T02:28:48.827Z,0
2023-03-23T02:34:06.001Z,0
2023-03-23T02:39:23.702Z,0
2023-03-23T02:44:41.204Z,0
2023-03-23T02:50:01.075Z,0
2023-03-23T02:55:18.823Z,0
2023-03-23T03:00:36.515Z,0
2023-03-23T03:05:53.753Z,0
2023-03-23T03:11:13.393Z,0
2023-03-23T03:16:30.930Z,0
2023-03-23T03:21:48.587Z,0
2023-03-23T03:27:05.862Z,0
2023-03-23T03:32:23.943Z,0
2023-03-23T03:37:41.346Z,0
2023-03-23T03:42:58.656Z,0
2023-03-23T03:48:15.991Z,0
2023-03-23T03:53:33.302Z,0
2023-03-23T03:58:51.252Z,0
2023-03-23T04:04:11.634Z,0
2023-03-23T04:09:29.153Z,0
2023-03-23T04:14:46.996Z,0
2023-03-23T04:20:06.382Z,0
2023-03-23T04:25:23.730Z,0
2023-03-23T04:30:43.842Z,0
2023-03-23T04:36:02.021Z,0
2023-03-23T04:41:19.488Z,0
2023-03-23T04:52:26.687Z,0
2023-03-23T04:57:44.020Z,0
2023-03-23T05:03:01.455Z,0
2023-03-23T05:08:20.970Z,0
2023-03-23T05:13:39.081Z,0.5
2023-03-23T05:19:03.563Z,27.9
2023-03-23T05:24:20.808Z,70.4
2023-03-23T05:29:40.932Z,126.7
2023-03-23T05:34:57.976Z,205.4
2023-03-23T05:40:14.944Z,313.3
2023-03-23T05:45:31.944Z,402.1
2023-03-23T05:50:51.972Z,472.5
2023-03-23T05:56:09.267Z,953.3
2023-03-23T06:01:26.230Z,1649.6
2023-03-23T06:06:43.288Z,1973.3
2023-03-23T06:12:00.752Z,1939.6
2023-03-23T06:17:20.407Z,2340.8
2023-03-23T06:22:38.106Z,2790.8
2023-03-23T06:27:55.318Z,3574.6
2023-03-23T06:33:12.493Z,3830
2023-03-23T06:38:29.497Z,3496.7
2023-03-23T06:43:46.673Z,3738.8
2023-03-23T06:54:23.914Z,3793.8
2023-03-23T06:59:40.961Z,3982.1
2023-03-23T07:04:58.034Z,5180
2023-03-23T07:10:15.273Z,5830.4
2023-03-23T07:15:32.653Z,5928.3
2023-03-23T07:20:50.080Z,5549.6
2023-03-23T07:26:07.122Z,6022.9
2023-03-23T07:31:25.917Z,6415.4
2023-03-23T07:36:43.410Z,7012.9
2023-03-23T07:42:00.566Z,7813.3
2023-03-23T07:47:17.414Z,6912.9
2023-03-23T07:52:34.564Z,7710.8
2023-03-23T07:57:51.654Z,8360.8
2023-03-23T08:03:08.993Z,8689.6
2023-03-23T08:08:28.448Z,8929.6
2023-03-23T08:13:45.883Z,9689.6
2023-03-23T08:19:08.393Z,10995
2023-03-23T08:24:26.874Z,11552.5
2023-03-23T08:29:44.403Z,12009.2
2023-03-23T08:35:07.472Z,12938.3
2023-03-23T08:40:24.841Z,13216.7
2023-03-23T08:45:42.108Z,16238.7
2023-03-23T08:50:59.462Z,16194.2
2023-03-23T08:56:16.491Z,10116.7
2023-03-23T09:01:33.158Z,10036.3
2023-03-23T09:06:53.030Z,11495.4
2023-03-23T09:12:10.102Z,8675.4
2023-03-23T09:17:26.985Z,12645.4
2023-03-23T09:22:52.001Z,19499.6
2023-03-23T09:28:11.202Z,16921.2
2023-03-23T09:33:47.071Z,17363.3
2023-03-23T09:39:04.834Z,20873.3
2023-03-23T09:44:22.495Z,16504.6
2023-03-23T09:49:41.947Z,20386.7
2023-03-23T09:54:59.501Z,17055.4
2023-03-23T10:00:16.364Z,16380.8
2023-03-23T10:05:33.811Z,12520
2023-03-23T10:10:50.708Z,10295
2023-03-23T10:16:07.641Z,24316.2
2023-03-23T10:21:26.552Z,30685
2023-03-23T10:26:45.196Z,29616.7
2023-03-23T10:32:01.241Z,30382.5
2023-03-23T10:37:17.835Z,18645.4
2023-03-23T10:42:33.816Z,23666.2
2023-03-23T10:47:50.638Z,17093.3
2023-03-23T10:53:07.372Z,20402.9
2023-03-23T10:58:24.226Z,17792.1
2023-03-23T11:03:40.541Z,9943.7
2023-03-23T11:08:58.492Z,16992.5
2023-03-23T11:14:22.418Z,25154.6
2023-03-23T11:19:42.549Z,21084.6
2023-03-23T11:25:13.510Z,28529.2
2023-03-23T11:30:32.398Z,21537.9
2023-03-23T11:35:48.900Z,19488.3
2023-03-23T11:41:06.591Z,40556.7
2023-03-23T11:46:26.973Z,24617.9
2023-03-23T11:51:43.680Z,21942.5
2023-03-23T11:56:59.830Z,53624.1
2023-03-23T12:02:17.229Z,25857.9
2023-03-23T12:07:33.614Z,32950.8
2023-03-23T12:12:51.500Z,21469.6
2023-03-23T12:18:55.292Z,19042.9
2023-03-23T12:24:11.652Z,17872.9
2023-03-23T12:29:27.658Z,18569.2
2023-03-23T12:34:43.587Z,14472.9
2023-03-23T12:45:20.062Z,18064.6
2023-03-23T12:50:37.018Z,14195.8
2023-03-23T13:01:15.645Z,11390.4
2023-03-23T13:06:32.732Z,7993.3
2023-03-23T13:11:49.729Z,7373.3
2023-03-23T13:17:06.721Z,18652.1
2023-03-23T13:22:24.651Z,16653.7
2023-03-23T13:27:43.007Z,21432.5
2023-03-23T13:33:01.017Z,15610.4
2023-03-23T13:38:17.337Z,30250
2023-03-23T13:43:48.567Z,7596.7
2023-03-23T13:49:08.038Z,11646.7
2023-03-23T13:54:32.973Z,14401.2
2023-03-23T13:59:49.597Z,13555
2023-03-23T14:05:05.757Z,8179.6
2023-03-23T14:10:22.319Z,6598.7
2023-03-23T14:15:46.719Z,9817.1
2023-03-23T14:21:04.691Z,6805
2023-03-23T14:26:28.837Z,10736.2
2023-03-23T14:31:46.029Z,10237.5
2023-03-23T14:37:03.600Z,12167.5
2023-03-23T14:42:20.727Z,12269.6
2023-03-23T14:47:37.908Z,15428.8
2023-03-23T14:52:54.856Z,12813.3
2023-03-23T14:58:12.479Z,9025.8
2023-03-23T15:03:29.809Z,9305
2023-03-23T15:08:46.039Z,16138.3
2023-03-23T15:14:03.534Z,8047.5
2023-03-23T15:19:19.835Z,7049.6
2023-03-23T15:24:37.227Z,9835.8
2023-03-23T15:29:54.322Z,6357.1
2023-03-23T15:35:12.417Z,6499.2
2023-03-23T15:40:34.252Z,8615
2023-03-23T15:45:51.372Z,7362.1
2023-03-23T15:51:08.386Z,6403.8
2023-03-23T15:56:25.104Z,5280
2023-03-23T16:01:42.087Z,5240
2023-03-23T16:06:58.871Z,5478.3
2023-03-23T16:12:18.821Z,6547.1
2023-03-23T16:17:39.105Z,4760
2023-03-23T16:22:56.013Z,4411.2
2023-03-23T16:28:12.639Z,4570.8
2023-03-23T16:33:29.773Z,4540.4
2023-03-23T16:38:48.918Z,3756.2
2023-03-23T16:44:14.384Z,3507.1
2023-03-23T16:49:31.725Z,3168.8
2023-03-23T16:54:48.688Z,2933.8
2023-03-23T17:00:11.316Z,2571.7
2023-03-23T17:05:28.555Z,2392.9
2023-03-23T17:10:45.674Z,1906.7
2023-03-23T17:16:06.382Z,1746.2
2023-03-23T17:21:23.462Z,1370.4
2023-03-23T17:26:40.429Z,1181.7
2023-03-23T17:31:57.413Z,724.6
2023-03-23T17:37:18.042Z,468.7
2023-03-23T17:42:34.899Z,346.3
2023-03-23T17:47:51.775Z,255.8
2023-03-23T17:58:31.292Z,93.3
2023-03-23T18:03:48.237Z,47.1
2023-03-23T18:09:23.106Z,19.2
2023-03-23T18:14:40.840Z,0
2023-03-23T18:19:58.117Z,0
2023-03-23T18:25:15.673Z,0.7
2023-03-23T18:30:33.016Z,0.2
2023-03-23T18:35:50.253Z,0
2023-03-23T18:41:07.338Z,0
2023-03-23T18:46:33.884Z,0
2023-03-23T18:51:52.091Z,0
2023-03-23T18:57:09.422Z,0
2023-03-23T19:02:26.897Z,0
2023-03-23T19:07:44.554Z,0
2023-03-23T19:18:11.909Z,0
2023-03-23T19:23:29.355Z,0
2023-03-23T19:29:19.155Z,0
2023-03-23T19:45:03.338Z,0
2023-03-23T19:50:20.736Z,0
2023-03-23T19:55:41.028Z,0
2023-03-23T20:00:58.755Z,0
2023-03-23T20:06:16.530Z,0
2023-03-23T20:11:34.523Z,0
2023-03-23T20:16:52.880Z,0
2023-03-23T20:22:10.079Z,0
2023-03-23T20:27:27.511Z,0
2023-03-23T20:32:45.497Z,0
2023-03-23T20:38:02.949Z,0
2023-03-23T20:43:20.459Z,0
2023-03-23T20:48:37.852Z,0
2023-03-23T21:04:35.658Z,0
2023-03-23T21:09:52.894Z,0
2023-03-23T21:15:10.146Z,0
2023-03-23T21:20:29.606Z,0
2023-03-23T21:25:47.004Z,0
2023-03-23T21:31:04.382Z,0
2023-03-23T21:36:21.746Z,0
2023-03-23T21:41:59.871Z,0
2023-03-23T21:47:17.431Z,0
2023-03-23T21:52:34.679Z,0
2023-03-23T21:57:52.125Z,0
2023-03-23T22:03:09.443Z,0
2023-03-23T22:08:27.150Z,0
2023-03-23T22:13:44.391Z,0
2023-03-23T22:19:03.764Z,0
2023-03-23T22:24:22.352Z,0
2023-03-23T22:29:42.444Z,0
2023-03-23T22:34:59.609Z,0
2023-03-23T22:40:38.038Z,0
2023-03-23T22:45:55.662Z,0
2023-03-23T22:51:12.994Z,0
2023-03-23T22:56:30.220Z,0
2023-03-23T23:01:47.428Z,0
2023-03-23T23:07:12.730Z,0
2023-03-23T23:12:30.545Z,0
2023-03-23T23:17:55.065Z,0
2023-03-23T23:23:12.538Z,0
2023-03-23T23:28:29.649Z,0
2023-03-23T23:33:46.964Z,0
2023-03-23T23:39:07.812Z,0
2023-03-23T23:44:24.978Z,0
2023-03-23T23:49:42.513Z,0
2023-03-23T23:54:59.938Z,0
